NCAR-RAP Real-Time Weather Data

Output produced by METARs form (12 May 2021  11:30 UTC)
found at http://weather.rap.ucar.edu/surface/
 
KYNG 121051Z 30003KT 10SM FEW060 03/01 A3032 RMK AO2 SLP274 T00330011
KYNG 120951Z 30003KT 10SM FEW060 02/01 A3030 RMK AO2 SLP269 T00220006
KYNG 120851Z 27003KT 10SM FEW060 03/01 A3029 RMK AO2 SLP263 T00330011 55001
KYNG 120751Z 31005KT 10SM SCT035 04/01 A3028 RMK AO2 SLP259 T00440011
KYNG 120651Z 32006KT 10SM BKN035 OVC042 05/02 A3028 RMK AO2 SLP261 T00500017
KYNG 120551Z 30005KT 10SM BKN055 05/01 A3029 RMK AO2 SLP264 T00500011 10083 20039 51004
KYNG 120451Z 31005KT 10SM BKN060 05/00 A3029 RMK AO2 SLP263 T00500000 401220039
KYNG 120351Z 26005KT 10SM BKN050 04/M01 A3029 RMK AO2 SLP262 T00441006
KYNG 120251Z 27004KT 10SM FEW060 FEW250 04/M01 A3028 RMK AO2 SLP261 T00441011 53015
KYNG 120151Z 00000KT 10SM FEW055 FEW100 04/M01 A3026 RMK AO2 SLP254 T00391011
KYNG 120051Z 30005KT 10SM FEW055 SCT100 07/M03 A3025 RMK AO2 SLP248 T00671028
KYNG 112351Z 31007KT 10SM BKN055 BKN220 08/M03 A3024 RMK AO2 SLP244 T00831028 10122 20083 53015
KYNG 112251Z 29010G20KT 240V310 10SM BKN050 BKN220 10/M03 A3021 RMK AO2 SLP236 T01001028
KYNG 112151Z 32014G18KT 10SM BKN050 10/M02 A3021 RMK AO2 SLP234 T01001017
KYNG 112051Z 30010G16KT 10SM BKN050 09/M03 A3019 RMK AO2 PK WND 34026/2019 SLP229 T00941028 51002
KYNG 111951Z 32016G23KT 10SM BKN050 11/M01 A3019 RMK AO2 SLP229 T01061006